sensor_id;sensor_type;location;lat;lon;timestamp;temperature;humidity
60473;DHT22;46318;52.716;6.444;2022-11-21T00:00:50;1.60;99.90
60473;DHT22;46318;52.716;6.444;2022-11-21T00:03:17;1.60;99.90
60473;DHT22;46318;52.716;6.444;2022-11-21T00:05:45;1.60;99.90
60473;DHT22;46318;52.716;6.444;2022-11-21T00:08:14;1.60;99.90
60473;DHT22;46318;52.716;6.444;2022-11-21T00:10:42;1.60;99.90
60473;DHT22;46318;52.716;6.444;2022-11-21T00:13:18;1.60;99.90
60473;DHT22;46318;52.716;6.444;2022-11-21T00:15:45;1.60;99.90
60473;DHT22;46318;52.716;6.444;2022-11-21T00:18:12;1.60;99.90
60473;DHT22;46318;52.716;6.444;2022-11-21T00:20:39;1.60;99.90
60473;DHT22;46318;52.716;6.444;2022-11-21T00:23:05;1.60;99.90
60473;DHT22;46318;52.716;6.444;2022-11-21T00:25:31;1.60;99.90
60473;DHT22;46318;52.716;6.444;2022-11-21T00:27:57;1.60;99.90
60473;DHT22;46318;52.716;6.444;2022-11-21T00:30:23;1.60;99.90
60473;DHT22;46318;52.716;6.444;2022-11-21T00:32:49;1.60;99.90
60473;DHT22;46318;52.716;6.444;2022-11-21T00:35:15;1.60;99.90
60473;DHT22;46318;52.716;6.444;2022-11-21T00:37:40;1.60;99.90
60473;DHT22;46318;52.716;6.444;2022-11-21T00:40:07;1.50;99.90
60473;DHT22;46318;52.716;6.444;2022-11-21T00:42:33;1.50;99.90
60473;DHT22;46318;52.716;6.444;2022-11-21T00:44:58;1.60;99.90
60473;DHT22;46318;52.716;6.444;2022-11-21T00:47:24;1.60;99.90
60473;DHT22;46318;52.716;6.444;2022-11-21T00:49:50;1.50;99.90
60473;DHT22;46318;52.716;6.444;2022-11-21T00:52:16;1.50;99.90
60473;DHT22;46318;52.716;6.444;2022-11-21T00:54:42;1.50;99.90
60473;DHT22;46318;52.716;6.444;2022-11-21T00:57:08;1.60;99.90
60473;DHT22;46318;52.716;6.444;2022-11-21T00:59:34;1.60;99.90
60473;DHT22;46318;52.716;6.444;2022-11-21T01:01:59;1.60;99.90
60473;DHT22;46318;52.716;6.444;2022-11-21T01:04:30;1.60;99.90
60473;DHT22;46318;52.716;6.444;2022-11-21T01:06:56;1.60;99.90
60473;DHT22;46318;52.716;6.444;2022-11-21T01:09:22;1.50;99.90
60473;DHT22;46318;52.716;6.444;2022-11-21T01:11:48;1.60;99.90
60473;DHT22;46318;52.716;6.444;2022-11-21T01:14:14;1.60;99.90
60473;DHT22;46318;52.716;6.444;2022-11-21T01:16:40;1.60;99.90
60473;DHT22;46318;52.716;6.444;2022-11-21T01:19:06;1.50;99.90
60473;DHT22;46318;52.716;6.444;2022-11-21T01:21:31;1.60;99.90
60473;DHT22;46318;52.716;6.444;2022-11-21T01:23:58;1.60;99.90
60473;DHT22;46318;52.716;6.444;2022-11-21T01:26:26;1.60;99.90
60473;DHT22;46318;52.716;6.444;2022-11-21T01:28:53;1.60;99.90
60473;DHT22;46318;52.716;6.444;2022-11-21T01:31:22;1.60;99.90
60473;DHT22;46318;52.716;6.444;2022-11-21T01:33:52;1.60;99.90
60473;DHT22;46318;52.716;6.444;2022-11-21T01:36:20;1.60;99.90
60473;DHT22;46318;52.716;6.444;2022-11-21T01:38:56;1.60;99.90
60473;DHT22;46318;52.716;6.444;2022-11-21T01:41:35;1.60;99.90
60473;DHT22;46318;52.716;6.444;2022-11-21T01:44:43;1.60;99.90
60473;DHT22;46318;52.716;6.444;2022-11-21T01:47:08;1.60;99.90
60473;DHT22;46318;52.716;6.444;2022-11-21T01:49:34;1.60;99.90
60473;DHT22;46318;52.716;6.444;2022-11-21T01:52:03;1.60;99.90
60473;DHT22;46318;52.716;6.444;2022-11-21T01:54:43;1.60;99.90
60473;DHT22;46318;52.716;6.444;2022-11-21T02:02:33;1.60;99.90
60473;DHT22;46318;52.716;6.444;2022-11-21T02:05:03;1.50;99.90
60473;DHT22;46318;52.716;6.444;2022-11-21T02:07:34;1.60;99.90
60473;DHT22;46318;52.716;6.444;2022-11-21T02:10:03;1.50;99.90
60473;DHT22;46318;52.716;6.444;2022-11-21T02:15:30;1.60;99.90
60473;DHT22;46318;52.716;6.444;2022-11-21T02:17:55;1.50;99.90
60473;DHT22;46318;52.716;6.444;2022-11-21T02:20:25;1.50;99.90
60473;DHT22;46318;52.716;6.444;2022-11-21T02:23:19;1.60;99.90
60473;DHT22;46318;52.716;6.444;2022-11-21T02:25:49;1.50;99.90
60473;DHT22;46318;52.716;6.444;2022-11-21T02:28:18;1.60;99.90
60473;DHT22;46318;52.716;6.444;2022-11-21T02:30:45;1.60;99.90
60473;DHT22;46318;52.716;6.444;2022-11-21T02:33:11;1.60;99.90
60473;DHT22;46318;52.716;6.444;2022-11-21T02:35:38;1.60;99.90
60473;DHT22;46318;52.716;6.444;2022-11-21T02:38:17;1.60;99.90
60473;DHT22;46318;52.716;6.444;2022-11-21T02:41:07;1.60;99.90
60473;DHT22;46318;52.716;6.444;2022-11-21T02:43:53;1.60;99.90
60473;DHT22;46318;52.716;6.444;2022-11-21T02:46:21;1.60;99.90
60473;DHT22;46318;52.716;6.444;2022-11-21T02:48:47;1.60;99.90
60473;DHT22;46318;52.716;6.444;2022-11-21T02:51:13;1.60;99.90
60473;DHT22;46318;52.716;6.444;2022-11-21T02:53:39;1.60;99.90
60473;DHT22;46318;52.716;6.444;2022-11-21T02:56:04;1.60;99.90
60473;DHT22;46318;52.716;6.444;2022-11-21T02:58:30;1.60;99.90
60473;DHT22;46318;52.716;6.444;2022-11-21T03:00:56;1.60;99.90
60473;DHT22;46318;52.716;6.444;2022-11-21T03:03:22;1.60;99.90
60473;DHT22;46318;52.716;6.444;2022-11-21T03:05:47;1.60;99.90
60473;DHT22;46318;52.716;6.444;2022-11-21T03:08:13;1.60;99.90
60473;DHT22;46318;52.716;6.444;2022-11-21T03:10:39;1.60;99.90
60473;DHT22;46318;52.716;6.444;2022-11-21T03:13:05;1.60;99.90
60473;DHT22;46318;52.716;6.444;2022-11-21T03:15:32;1.60;99.90
60473;DHT22;46318;52.716;6.444;2022-11-21T03:17:59;1.60;99.90
60473;DHT22;46318;52.716;6.444;2022-11-21T03:20:28;1.60;99.90
60473;DHT22;46318;52.716;6.444;2022-11-21T03:22:54;1.50;99.90
60473;DHT22;46318;52.716;6.444;2022-11-21T03:25:20;1.60;99.90
60473;DHT22;46318;52.716;6.444;2022-11-21T03:27:49;1.50;99.90
60473;DHT22;46318;52.716;6.444;2022-11-21T03:30:15;1.50;99.90
60473;DHT22;46318;52.716;6.444;2022-11-21T03:32:41;1.50;99.90
60473;DHT22;46318;52.716;6.444;2022-11-21T03:35:07;1.50;99.90
60473;DHT22;46318;52.716;6.444;2022-11-21T03:37:33;1.50;99.90
60473;DHT22;46318;52.716;6.444;2022-11-21T03:39:58;1.50;99.90
60473;DHT22;46318;52.716;6.444;2022-11-21T03:42:24;1.40;99.90
60473;DHT22;46318;52.716;6.444;2022-11-21T03:44:50;1.40;99.90
60473;DHT22;46318;52.716;6.444;2022-11-21T03:47:16;1.40;99.90
60473;DHT22;46318;52.716;6.444;2022-11-21T03:49:41;1.40;99.90
60473;DHT22;46318;52.716;6.444;2022-11-21T03:52:07;1.40;99.90
60473;DHT22;46318;52.716;6.444;2022-11-21T03:54:33;1.40;99.90
60473;DHT22;46318;52.716;6.444;2022-11-21T03:56:59;1.40;99.90
60473;DHT22;46318;52.716;6.444;2022-11-21T03:59:24;1.40;99.90
60473;DHT22;46318;52.716;6.444;2022-11-21T04:01:50;1.40;99.90
60473;DHT22;46318;52.716;6.444;2022-11-21T04:04:19;1.30;99.90
60473;DHT22;46318;52.716;6.444;2022-11-21T04:06:45;1.30;99.90
60473;DHT22;46318;52.716;6.444;2022-11-21T04:09:10;1.30;99.90
60473;DHT22;46318;52.716;6.444;2022-11-21T04:11:36;1.30;99.90
60473;DHT22;46318;52.716;6.444;2022-11-21T04:14:02;1.30;99.90
60473;DHT22;46318;52.716;6.444;2022-11-21T04:16:28;1.30;99.90
60473;DHT22;46318;52.716;6.444;2022-11-21T04:18:54;1.30;99.90
60473;DHT22;46318;52.716;6.444;2022-11-21T04:21:19;1.20;99.90
60473;DHT22;46318;52.716;6.444;2022-11-21T04:23:45;1.20;99.90
60473;DHT22;46318;52.716;6.444;2022-11-21T04:26:11;1.20;99.90
60473;DHT22;46318;52.716;6.444;2022-11-21T04:28:36;1.20;99.90
60473;DHT22;46318;52.716;6.444;2022-11-21T04:31:04;1.20;99.90
60473;DHT22;46318;52.716;6.444;2022-11-21T04:33:30;1.10;99.90
60473;DHT22;46318;52.716;6.444;2022-11-21T04:35:56;1.10;99.90
60473;DHT22;46318;52.716;6.444;2022-11-21T04:38:22;1.10;99.90
60473;DHT22;46318;52.716;6.444;2022-11-21T04:40:48;1.10;99.90
60473;DHT22;46318;52.716;6.444;2022-11-21T04:43:13;1.10;99.90
60473;DHT22;46318;52.716;6.444;2022-11-21T04:45:39;1.10;99.90
60473;DHT22;46318;52.716;6.444;2022-11-21T04:48:05;1.00;99.90
60473;DHT22;46318;52.716;6.444;2022-11-21T04:50:31;1.00;99.90
60473;DHT22;46318;52.716;6.444;2022-11-21T04:52:57;1.00;99.90
60473;DHT22;46318;52.716;6.444;2022-11-21T04:55:26;1.00;99.90
60473;DHT22;46318;52.716;6.444;2022-11-21T04:57:54;0.90;99.90
60473;DHT22;46318;52.716;6.444;2022-11-21T05:00:20;0.90;99.90
60473;DHT22;46318;52.716;6.444;2022-11-21T05:02:46;0.90;99.90
60473;DHT22;46318;52.716;6.444;2022-11-21T05:05:12;0.90;99.90
60473;DHT22;46318;52.716;6.444;2022-11-21T05:07:38;0.90;99.90
60473;DHT22;46318;52.716;6.444;2022-11-21T05:10:05;0.80;99.90
60473;DHT22;46318;52.716;6.444;2022-11-21T05:12:31;0.80;99.90
60473;DHT22;46318;52.716;6.444;2022-11-21T05:15:16;0.80;99.90
60473;DHT22;46318;52.716;6.444;2022-11-21T05:17:42;0.80;99.90
60473;DHT22;46318;52.716;6.444;2022-11-21T05:20:08;0.80;99.90
60473;DHT22;46318;52.716;6.444;2022-11-21T05:22:35;0.70;99.90
60473;DHT22;46318;52.716;6.444;2022-11-21T05:25:00;0.70;99.90
60473;DHT22;46318;52.716;6.444;2022-11-21T05:27:26;0.70;99.90
60473;DHT22;46318;52.716;6.444;2022-11-21T05:29:52;0.70;99.90
60473;DHT22;46318;52.716;6.444;2022-11-21T05:32:19;0.60;99.90
60473;DHT22;46318;52.716;6.444;2022-11-21T05:34:44;0.60;99.90
60473;DHT22;46318;52.716;6.444;2022-11-21T05:37:10;0.60;99.90
60473;DHT22;46318;52.716;6.444;2022-11-21T05:39:36;0.60;99.90
60473;DHT22;46318;52.716;6.444;2022-11-21T05:42:01;0.50;99.90
60473;DHT22;46318;52.716;6.444;2022-11-21T05:44:27;0.50;99.90
60473;DHT22;46318;52.716;6.444;2022-11-21T05:46:53;0.50;99.90
60473;DHT22;46318;52.716;6.444;2022-11-21T05:49:19;0.50;99.90
60473;DHT22;46318;52.716;6.444;2022-11-21T05:51:45;0.50;99.90
60473;DHT22;46318;52.716;6.444;2022-11-21T05:54:12;0.40;99.90
60473;DHT22;46318;52.716;6.444;2022-11-21T05:56:39;0.40;99.90
60473;DHT22;46318;52.716;6.444;2022-11-21T05:59:05;0.40;99.90
60473;DHT22;46318;52.716;6.444;2022-11-21T06:01:31;0.40;99.90
60473;DHT22;46318;52.716;6.444;2022-11-21T06:04:15;0.30;99.90
60473;DHT22;46318;52.716;6.444;2022-11-21T06:06:41;0.30;99.90
60473;DHT22;46318;52.716;6.444;2022-11-21T06:09:06;0.30;99.90
60473;DHT22;46318;52.716;6.444;2022-11-21T06:11:32;0.30;99.90
60473;DHT22;46318;52.716;6.444;2022-11-21T06:13:58;0.30;99.90
60473;DHT22;46318;52.716;6.444;2022-11-21T06:16:24;0.20;99.90
60473;DHT22;46318;52.716;6.444;2022-11-21T06:18:50;0.20;99.90
60473;DHT22;46318;52.716;6.444;2022-11-21T06:21:24;0.20;99.90
60473;DHT22;46318;52.716;6.444;2022-11-21T06:23:54;0.20;99.90
60473;DHT22;46318;52.716;6.444;2022-11-21T06:26:23;0.10;99.90
60473;DHT22;46318;52.716;6.444;2022-11-21T06:28:49;0.10;99.90
60473;DHT22;46318;52.716;6.444;2022-11-21T06:31:21;0.10;99.90
60473;DHT22;46318;52.716;6.444;2022-11-21T06:33:56;0.10;99.90
60473;DHT22;46318;52.716;6.444;2022-11-21T06:36:23;0.10;99.90
60473;DHT22;46318;52.716;6.444;2022-11-21T06:38:52;0.10;99.90
60473;DHT22;46318;52.716;6.444;2022-11-21T06:41:21;0.10;99.90
60473;DHT22;46318;52.716;6.444;2022-11-21T06:43:48;0.00;99.90
60473;DHT22;46318;52.716;6.444;2022-11-21T06:46:14;0.00;99.90
60473;DHT22;46318;52.716;6.444;2022-11-21T06:48:41;0.00;99.90
60473;DHT22;46318;52.716;6.444;2022-11-21T06:53:45;0.00;99.90
60473;DHT22;46318;52.716;6.444;2022-11-21T06:56:13;0.00;99.90
60473;DHT22;46318;52.716;6.444;2022-11-21T06:58:42;-0.10;99.90
60473;DHT22;46318;52.716;6.444;2022-11-21T07:01:09;-0.10;99.90
60473;DHT22;46318;52.716;6.444;2022-11-21T07:03:35;-0.10;99.90
60473;DHT22;46318;52.716;6.444;2022-11-21T07:06:01;-0.10;99.90
60473;DHT22;46318;52.716;6.444;2022-11-21T07:08:29;-0.10;99.90
60473;DHT22;46318;52.716;6.444;2022-11-21T07:11:04;-0.10;99.90
60473;DHT22;46318;52.716;6.444;2022-11-21T07:13:31;-0.10;99.90
60473;DHT22;46318;52.716;6.444;2022-11-21T07:16:05;-0.10;99.90
60473;DHT22;46318;52.716;6.444;2022-11-21T07:18:33;-0.10;99.90
60473;DHT22;46318;52.716;6.444;2022-11-21T07:21:00;-0.10;99.90
60473;DHT22;46318;52.716;6.444;2022-11-21T07:23:30;-0.10;99.90
60473;DHT22;46318;52.716;6.444;2022-11-21T07:26:01;-0.10;99.90
60473;DHT22;46318;52.716;6.444;2022-11-21T07:28:29;-0.10;99.90
60473;DHT22;46318;52.716;6.444;2022-11-21T07:30:56;-0.10;99.90
60473;DHT22;46318;52.716;6.444;2022-11-21T07:33:22;-0.10;99.90
60473;DHT22;46318;52.716;6.444;2022-11-21T07:35:48;-0.20;99.90
60473;DHT22;46318;52.716;6.444;2022-11-21T07:38:14;-0.20;99.90
60473;DHT22;46318;52.716;6.444;2022-11-21T07:40:40;-0.20;99.90
60473;DHT22;46318;52.716;6.444;2022-11-21T07:43:06;-0.20;99.90
60473;DHT22;46318;52.716;6.444;2022-11-21T07:45:32;-0.20;99.90
60473;DHT22;46318;52.716;6.444;2022-11-21T07:48:00;-0.20;99.90
60473;DHT22;46318;52.716;6.444;2022-11-21T07:50:27;-0.20;99.90
60473;DHT22;46318;52.716;6.444;2022-11-21T07:52:59;-0.20;99.90
60473;DHT22;46318;52.716;6.444;2022-11-21T07:55:27;-0.20;99.90
60473;DHT22;46318;52.716;6.444;2022-11-21T07:58:07;-0.20;99.90
60473;DHT22;46318;52.716;6.444;2022-11-21T08:00:36;-0.20;99.90
60473;DHT22;46318;52.716;6.444;2022-11-21T08:03:04;-0.20;99.90
60473;DHT22;46318;52.716;6.444;2022-11-21T08:05:34;-0.20;99.90
60473;DHT22;46318;52.716;6.444;2022-11-21T08:08:05;-0.20;99.90
60473;DHT22;46318;52.716;6.444;2022-11-21T08:10:31;-0.20;99.90
60473;DHT22;46318;52.716;6.444;2022-11-21T08:12:57;-0.20;99.90
60473;DHT22;46318;52.716;6.444;2022-11-21T08:15:23;-0.30;99.90
60473;DHT22;46318;52.716;6.444;2022-11-21T08:17:49;-0.30;99.90
60473;DHT22;46318;52.716;6.444;2022-11-21T08:20:14;-0.20;99.90
60473;DHT22;46318;52.716;6.444;2022-11-21T08:22:41;-0.20;99.90
60473;DHT22;46318;52.716;6.444;2022-11-21T08:25:08;-0.20;99.90
60473;DHT22;46318;52.716;6.444;2022-11-21T08:27:36;-0.20;99.90
60473;DHT22;46318;52.716;6.444;2022-11-21T08:30:07;-0.20;99.90
60473;DHT22;46318;52.716;6.444;2022-11-21T08:32:35;-0.20;99.90
60473;DHT22;46318;52.716;6.444;2022-11-21T08:35:01;-0.20;99.90
60473;DHT22;46318;52.716;6.444;2022-11-21T08:37:27;-0.20;99.90
60473;DHT22;46318;52.716;6.444;2022-11-21T08:39:54;-0.20;99.90
60473;DHT22;46318;52.716;6.444;2022-11-21T08:42:20;-0.20;99.90
60473;DHT22;46318;52.716;6.444;2022-11-21T08:44:46;-0.10;99.90
60473;DHT22;46318;52.716;6.444;2022-11-21T08:47:12;-0.10;99.90
60473;DHT22;46318;52.716;6.444;2022-11-21T08:49:38;-0.10;99.90
60473;DHT22;46318;52.716;6.444;2022-11-21T08:52:04;-0.10;99.90
60473;DHT22;46318;52.716;6.444;2022-11-21T08:54:29;-0.10;99.90
60473;DHT22;46318;52.716;6.444;2022-11-21T08:56:55;0.00;99.90
60473;DHT22;46318;52.716;6.444;2022-11-21T08:59:23;0.00;99.90
60473;DHT22;46318;52.716;6.444;2022-11-21T09:01:49;0.00;99.90
60473;DHT22;46318;52.716;6.444;2022-11-21T09:04:17;0.10;99.90
60473;DHT22;46318;52.716;6.444;2022-11-21T09:06:43;0.10;99.90
60473;DHT22;46318;52.716;6.444;2022-11-21T09:09:09;0.10;99.90
60473;DHT22;46318;52.716;6.444;2022-11-21T09:11:35;0.10;99.90
60473;DHT22;46318;52.716;6.444;2022-11-21T09:14:02;0.20;99.90
60473;DHT22;46318;52.716;6.444;2022-11-21T09:16:46;0.20;99.90
60473;DHT22;46318;52.716;6.444;2022-11-21T09:19:30;0.30;99.90
60473;DHT22;46318;52.716;6.444;2022-11-21T09:21:56;0.30;99.90
60473;DHT22;46318;52.716;6.444;2022-11-21T09:24:22;0.30;99.90
60473;DHT22;46318;52.716;6.444;2022-11-21T09:26:47;0.30;99.90
60473;DHT22;46318;52.716;6.444;2022-11-21T09:29:13;0.40;99.90
60473;DHT22;46318;52.716;6.444;2022-11-21T09:31:43;0.40;99.90
60473;DHT22;46318;52.716;6.444;2022-11-21T09:34:09;0.40;99.90
60473;DHT22;46318;52.716;6.444;2022-11-21T09:36:36;0.50;99.90
60473;DHT22;46318;52.716;6.444;2022-11-21T09:39:02;0.50;99.90
60473;DHT22;46318;52.716;6.444;2022-11-21T09:41:59;0.50;99.90
60473;DHT22;46318;52.716;6.444;2022-11-21T09:45:07;0.60;99.90
60473;DHT22;46318;52.716;6.444;2022-11-21T09:47:40;0.60;99.90
60473;DHT22;46318;52.716;6.444;2022-11-21T09:52:45;0.70;99.90
60473;DHT22;46318;52.716;6.444;2022-11-21T09:55:22;0.70;99.90
60473;DHT22;46318;52.716;6.444;2022-11-21T09:57:55;0.80;99.90
60473;DHT22;46318;52.716;6.444;2022-11-21T10:00:23;0.80;99.90
60473;DHT22;46318;52.716;6.444;2022-11-21T10:02:50;0.80;99.90
60473;DHT22;46318;52.716;6.444;2022-11-21T10:05:24;0.80;99.90
60473;DHT22;46318;52.716;6.444;2022-11-21T10:08:15;0.90;99.90
60473;DHT22;46318;52.716;6.444;2022-11-21T10:13:18;1.00;99.90
60473;DHT22;46318;52.716;6.444;2022-11-21T10:19:06;1.10;99.90
60473;DHT22;46318;52.716;6.444;2022-11-21T10:24:26;1.20;99.90
60473;DHT22;46318;52.716;6.444;2022-11-21T10:27:11;1.20;99.90
60473;DHT22;46318;52.716;6.444;2022-11-21T10:29:53;1.30;99.90
60473;DHT22;46318;52.716;6.444;2022-11-21T10:32:38;1.30;99.90
60473;DHT22;46318;52.716;6.444;2022-11-21T10:35:24;1.40;99.90
60473;DHT22;46318;52.716;6.444;2022-11-21T10:37:52;1.40;99.90
60473;DHT22;46318;52.716;6.444;2022-11-21T10:46:59;1.50;99.90
60473;DHT22;46318;52.716;6.444;2022-11-21T10:49:31;1.50;99.90
60473;DHT22;46318;52.716;6.444;2022-11-21T10:52:14;1.60;99.90
60473;DHT22;46318;52.716;6.444;2022-11-21T10:57:28;1.60;99.90
60473;DHT22;46318;52.716;6.444;2022-11-21T11:05:21;1.70;99.90
60473;DHT22;46318;52.716;6.444;2022-11-21T11:08:11;1.80;99.90
60473;DHT22;46318;52.716;6.444;2022-11-21T11:13:20;1.80;99.90
60473;DHT22;46318;52.716;6.444;2022-11-21T11:18:50;1.80;99.90
60473;DHT22;46318;52.716;6.444;2022-11-21T11:21:23;1.90;99.90
60473;DHT22;46318;52.716;6.444;2022-11-21T11:23:52;1.90;99.90
60473;DHT22;46318;52.716;6.444;2022-11-21T11:26:30;2.00;99.90
60473;DHT22;46318;52.716;6.444;2022-11-21T11:29:22;2.00;99.90
60473;DHT22;46318;52.716;6.444;2022-11-21T11:34:35;2.00;99.90
60473;DHT22;46318;52.716;6.444;2022-11-21T11:40:24;2.10;99.90
60473;DHT22;46318;52.716;6.444;2022-11-21T11:49:30;2.20;99.90
60473;DHT22;46318;52.716;6.444;2022-11-21T11:52:45;2.20;99.90
60473;DHT22;46318;52.716;6.444;2022-11-21T11:55:21;2.20;99.90
60473;DHT22;46318;52.716;6.444;2022-11-21T11:57:52;2.30;99.90
60473;DHT22;46318;52.716;6.444;2022-11-21T12:03:43;2.30;99.90
60473;DHT22;46318;52.716;6.444;2022-11-21T12:06:18;2.40;99.90
60473;DHT22;46318;52.716;6.444;2022-11-21T12:08:51;2.40;99.90
60473;DHT22;46318;52.716;6.444;2022-11-21T12:15:01;2.50;99.90
60473;DHT22;46318;52.716;6.444;2022-11-21T12:18:07;2.60;99.90
60473;DHT22;46318;52.716;6.444;2022-11-21T12:24:09;2.70;99.90
60473;DHT22;46318;52.716;6.444;2022-11-21T12:37:55;2.90;99.90
60473;DHT22;46318;52.716;6.444;2022-11-21T12:40:57;2.90;99.90
60473;DHT22;46318;52.716;6.444;2022-11-21T12:47:00;2.90;99.90
60473;DHT22;46318;52.716;6.444;2022-11-21T12:49:47;2.90;99.90
60473;DHT22;46318;52.716;6.444;2022-11-21T12:52:40;2.90;99.90
60473;DHT22;46318;52.716;6.444;2022-11-21T12:55:37;2.90;99.90
60473;DHT22;46318;52.716;6.444;2022-11-21T13:01:26;2.90;99.90
60473;DHT22;46318;52.716;6.444;2022-11-21T13:03:59;3.00;99.90
60473;DHT22;46318;52.716;6.444;2022-11-21T13:06:29;3.00;99.90
60473;DHT22;46318;52.716;6.444;2022-11-21T13:08:59;3.00;99.90
60473;DHT22;46318;52.716;6.444;2022-11-21T13:11:40;3.00;99.90
60473;DHT22;46318;52.716;6.444;2022-11-21T13:20:14;3.10;99.90
60473;DHT22;46318;52.716;6.444;2022-11-21T13:22:51;3.10;99.90
60473;DHT22;46318;52.716;6.444;2022-11-21T13:30:57;3.10;99.90
60473;DHT22;46318;52.716;6.444;2022-11-21T13:52:45;3.30;99.90
60473;DHT22;46318;52.716;6.444;2022-11-21T13:55:38;3.30;99.90
60473;DHT22;46318;52.716;6.444;2022-11-21T13:58:43;3.30;99.90
60473;DHT22;46318;52.716;6.444;2022-11-21T14:02:04;3.40;99.90
60473;DHT22;46318;52.716;6.444;2022-11-21T14:07:31;3.40;99.90
60473;DHT22;46318;52.716;6.444;2022-11-21T14:10:00;3.40;99.90
60473;DHT22;46318;52.716;6.444;2022-11-21T14:12:36;3.40;99.90
60473;DHT22;46318;52.716;6.444;2022-11-21T14:16:01;3.50;99.90
60473;DHT22;46318;52.716;6.444;2022-11-21T14:18:19;3.50;99.90
60473;DHT22;46318;52.716;6.444;2022-11-21T14:20:56;3.50;99.90
60473;DHT22;46318;52.716;6.444;2022-11-21T14:23:32;3.50;99.90
60473;DHT22;46318;52.716;6.444;2022-11-21T14:26:11;3.50;99.90
60473;DHT22;46318;52.716;6.444;2022-11-21T14:28:39;3.50;99.90
60473;DHT22;46318;52.716;6.444;2022-11-21T14:31:07;3.60;99.90
60473;DHT22;46318;52.716;6.444;2022-11-21T14:33:38;3.60;99.90
60473;DHT22;46318;52.716;6.444;2022-11-21T14:36:20;3.60;99.90
60473;DHT22;46318;52.716;6.444;2022-11-21T14:39:08;3.60;99.90
60473;DHT22;46318;52.716;6.444;2022-11-21T14:41:37;3.60;99.90
60473;DHT22;46318;52.716;6.444;2022-11-21T14:46:37;3.70;99.90
60473;DHT22;46318;52.716;6.444;2022-11-21T14:51:55;3.70;99.90
60473;DHT22;46318;52.716;6.444;2022-11-21T14:54:51;3.70;99.90
60473;DHT22;46318;52.716;6.444;2022-11-21T14:57:31;3.70;99.90
60473;DHT22;46318;52.716;6.444;2022-11-21T14:59:59;3.70;99.90
60473;DHT22;46318;52.716;6.444;2022-11-21T15:02:30;3.70;99.90
60473;DHT22;46318;52.716;6.444;2022-11-21T15:05:05;3.80;99.90
60473;DHT22;46318;52.716;6.444;2022-11-21T15:07:40;3.80;99.90
60473;DHT22;46318;52.716;6.444;2022-11-21T15:10:15;3.80;99.90
60473;DHT22;46318;52.716;6.444;2022-11-21T15:15:53;3.80;99.90
60473;DHT22;46318;52.716;6.444;2022-11-21T15:18:22;3.80;99.90
60473;DHT22;46318;52.716;6.444;2022-11-21T15:21:12;3.90;99.90
60473;DHT22;46318;52.716;6.444;2022-11-21T15:23:39;3.90;99.90
60473;DHT22;46318;52.716;6.444;2022-11-21T15:26:28;3.90;99.90
60473;DHT22;46318;52.716;6.444;2022-11-21T15:28:58;3.90;99.90
60473;DHT22;46318;52.716;6.444;2022-11-21T15:31:25;3.90;99.90
60473;DHT22;46318;52.716;6.444;2022-11-21T15:34:07;3.90;99.90
60473;DHT22;46318;52.716;6.444;2022-11-21T15:36:33;3.90;99.90
60473;DHT22;46318;52.716;6.444;2022-11-21T15:41:32;4.00;99.90
60473;DHT22;46318;52.716;6.444;2022-11-21T15:46:28;4.00;99.90
60473;DHT22;46318;52.716;6.444;2022-11-21T15:48:56;4.00;99.90
60473;DHT22;46318;52.716;6.444;2022-11-21T15:51:40;4.00;99.90
60473;DHT22;46318;52.716;6.444;2022-11-21T15:54:18;4.00;99.90
60473;DHT22;46318;52.716;6.444;2022-11-21T15:56:47;4.00;99.90
60473;DHT22;46318;52.716;6.444;2022-11-21T15:59:14;4.00;99.90
60473;DHT22;46318;52.716;6.444;2022-11-21T16:01:40;4.10;99.90
60473;DHT22;46318;52.716;6.444;2022-11-21T16:04:10;4.10;99.90
60473;DHT22;46318;52.716;6.444;2022-11-21T16:06:36;4.10;99.90
60473;DHT22;46318;52.716;6.444;2022-11-21T16:09:02;4.10;99.90
60473;DHT22;46318;52.716;6.444;2022-11-21T16:11:34;4.10;99.90
60473;DHT22;46318;52.716;6.444;2022-11-21T16:14:10;4.10;99.90
60473;DHT22;46318;52.716;6.444;2022-11-21T16:16:40;4.10;99.90
60473;DHT22;46318;52.716;6.444;2022-11-21T16:19:08;4.10;99.90
60473;DHT22;46318;52.716;6.444;2022-11-21T16:21:35;4.10;99.90
60473;DHT22;46318;52.716;6.444;2022-11-21T16:24:01;4.10;99.90
60473;DHT22;46318;52.716;6.444;2022-11-21T16:26:30;4.10;99.90
60473;DHT22;46318;52.716;6.444;2022-11-21T16:28:58;4.10;99.90
60473;DHT22;46318;52.716;6.444;2022-11-21T16:31:29;4.10;99.90
60473;DHT22;46318;52.716;6.444;2022-11-21T16:33:56;4.10;99.90
60473;DHT22;46318;52.716;6.444;2022-11-21T16:36:30;4.10;99.90
60473;DHT22;46318;52.716;6.444;2022-11-21T16:38:58;4.10;99.90
60473;DHT22;46318;52.716;6.444;2022-11-21T16:41:26;4.10;99.90
60473;DHT22;46318;52.716;6.444;2022-11-21T16:43:53;4.10;99.90
60473;DHT22;46318;52.716;6.444;2022-11-21T16:46:22;4.10;99.90
60473;DHT22;46318;52.716;6.444;2022-11-21T16:48:57;4.10;99.90
60473;DHT22;46318;52.716;6.444;2022-11-21T16:51:24;4.10;99.90
60473;DHT22;46318;52.716;6.444;2022-11-21T16:53:50;4.10;99.90
60473;DHT22;46318;52.716;6.444;2022-11-21T16:56:16;4.10;99.90
60473;DHT22;46318;52.716;6.444;2022-11-21T16:58:42;4.10;99.90
60473;DHT22;46318;52.716;6.444;2022-11-21T17:03:42;4.10;99.90
60473;DHT22;46318;52.716;6.444;2022-11-21T17:06:10;4.10;99.90
60473;DHT22;46318;52.716;6.444;2022-11-21T17:08:37;4.10;99.90
60473;DHT22;46318;52.716;6.444;2022-11-21T17:11:18;4.10;99.90
60473;DHT22;46318;52.716;6.444;2022-11-21T17:13:47;4.10;99.90
60473;DHT22;46318;52.716;6.444;2022-11-21T17:16:15;4.10;99.90
60473;DHT22;46318;52.716;6.444;2022-11-21T17:18:42;4.10;99.90
60473;DHT22;46318;52.716;6.444;2022-11-21T17:21:11;4.00;99.90
60473;DHT22;46318;52.716;6.444;2022-11-21T17:23:40;4.00;99.90
60473;DHT22;46318;52.716;6.444;2022-11-21T17:26:10;4.00;99.90
60473;DHT22;46318;52.716;6.444;2022-11-21T17:28:37;4.00;99.90
60473;DHT22;46318;52.716;6.444;2022-11-21T17:31:08;4.00;99.90
60473;DHT22;46318;52.716;6.444;2022-11-21T17:33:35;4.00;99.90
60473;DHT22;46318;52.716;6.444;2022-11-21T17:36:03;4.10;99.90
60473;DHT22;46318;52.716;6.444;2022-11-21T17:38:29;4.00;99.90
60473;DHT22;46318;52.716;6.444;2022-11-21T17:41:03;4.00;99.90
60473;DHT22;46318;52.716;6.444;2022-11-21T17:43:30;4.00;99.90
60473;DHT22;46318;52.716;6.444;2022-11-21T17:46:08;4.00;99.90
60473;DHT22;46318;52.716;6.444;2022-11-21T17:48:40;4.00;99.90
60473;DHT22;46318;52.716;6.444;2022-11-21T17:51:15;4.00;99.90
60473;DHT22;46318;52.716;6.444;2022-11-21T17:53:44;3.90;99.90
60473;DHT22;46318;52.716;6.444;2022-11-21T17:56:13;4.00;99.90
60473;DHT22;46318;52.716;6.444;2022-11-21T17:58:43;3.90;99.90
60473;DHT22;46318;52.716;6.444;2022-11-21T18:01:09;4.00;99.90
60473;DHT22;46318;52.716;6.444;2022-11-21T18:03:38;4.00;99.90
60473;DHT22;46318;52.716;6.444;2022-11-21T18:06:06;4.00;99.90
60473;DHT22;46318;52.716;6.444;2022-11-21T18:08:38;4.00;99.90
60473;DHT22;46318;52.716;6.444;2022-11-21T18:11:07;3.90;99.90
60473;DHT22;46318;52.716;6.444;2022-11-21T18:13:34;3.90;99.90
60473;DHT22;46318;52.716;6.444;2022-11-21T18:16:12;3.90;99.90
60473;DHT22;46318;52.716;6.444;2022-11-21T18:18:39;3.90;99.90